logo
Rechercher aéroport 
image banner adimage banner adimage banner ad
image banner ad

PMDY - Henderson Fld

Situé à Midway Atoll,

ICAO - MDY, IATA - MDY

Données fournies par Airmate  

Information générale

Coordonnées: N28°12'5" W177°22'53"
Élévation : 12 feet MSL.
Variation magnétique : 10° East
Voir autres Aéroports à Midway Islands

Données opérationnelles

Special qualification required
Heure actuelle UTC:
Heure actuelle locale:
Météo
TAF: PMDY 222335Z 2300/2324 08010KT P6SM FEW020 SCT040 AMD NOT SKED
Voir NOTAMs / SUP AIP / TFR affectant cet aéroport [VIEW]
Fréquences de communication: [VIEW]

Pistes:

Identifiant RWYQFULongueur (ft)Largeur (ft)SurfaceLDA (ft)
0669°7800150ASPH7800
24249°7800150ASPH7400

Coordonnées de l'aéroport

Adresse: Midway Atoll

Vue satellite de PMDY